Kezdőlap
METAR-TAF:

METAR-TAF

Repülőterek :

Taskent, Üzbegisztán

földrajzi szélesség: 41-16N, földrajzi hosszúság: 069-16E, magasság: 489 m

Jelenlegi meteorológiai megfigyelések

A jelentés 37 perccel ezelõtt készült, 06:00 UTC
Déli szél 4 kt, délkeleti és nyugat-délnyugati között változik
Hőmérséklet 12°C
Páratartalom 62%
Légköri nyomás 1014 hPa
Látótávolság: 7000 m

METAR: UTTT 230600Z 17004KT 130V250 7000 NSC 12/05 Q1014 R08R/CLRD70 NOSIG

Idő: 11:37 (06:37 UTC)

Előrejelzés

A jelentés 1 órával és 37 perccel ezelõtt készült, 05:00 UTC
Az előrejelzés 23-én 06 óra UTC és 24-én 06 óra UTC között érvényes
Különbözõ irányokból fújó szél 2 kt
Látótávolság: 7000 m
23-én 18 óra UTC és 24-én 06 óra UTC között ideiglenes
Nyugati szél 14 kt
Látótávolság: 3000 m
Szórványos felhőzet 6000 lábon, Cumulonimbus.
Szakadozott felhőzet 10000 lábon
Párásság

TAF: UTTT 230500Z 2306/2406 VRB02KT 7000 NSC TEMPO 2318/2406 26014KT 3000 BR SCT060CB BKN100

Meteorológiai megfigyelések és előrejelzések több, mint 4000 repülőtéren (METAR és TAF jelentéseket).

A térképen piros és sárga pontok jelzik az elérhető meteorológiai állomásokat.

Mozgassa az egeret a pont fölött, hogy megjelenjen az állomás neve.

Azután kattintson az időjárási megfigyelések és előrejelzések megtekintéséhez.

A térkép megváltoztatása: kattintson a fekete keresztel jelölt zöld gombra ráközelítéshez, a vonallal jelölt zöld gombra távolításhoz, vagy a zöld nyilakra a szomszédos térképek eléréséhez.


METAR-TAF: